Aspen, CO

10:44 PM MST on February 28, 2015 (GMT -0700)
Lake County | Change Station
CLOSE
Current Station
Airport
Location: Leadville,
Elevation: 9928 ft
Nearby Weather Stations
Active Advisory: Winter Storm Warning

Elev 9928 ft 39.23 °N, 106.32 °W | Updated 26 minutes ago

Snow
Snow
16 °F
Feels Like 5 °F
N
8
Wind Variable Wind from South

Today
High -- | Low -- °F
--% Chance of Precip.
Yesterday
High -- | Low -- °F
Precip. -- in
6:41 AM 5:58 PM
Waxing Gibbous, 83% visible
Pressure 29.84 in
Visibility 2.5 miles
Clouds Few 400 ft
Overcast 2500 ft
Windchill 5 °F
Dew Point 15 °F
Humidity 96%
Rainfall 0.04 in
Snow Depth Not available.
UV 0 out of 12
Pollen 3.10 out of 12
Air Quality Not available.
Flu Activity Not available.
SPECI KLXV 010518Z AUTO 18007KT 2 1/2SM -SN BR FEW004 OVC025 M09/M09 A2984 RMK AO2 P0000 T10891094

More Conditions Fewer Conditions

Pressure 29.84 in
Visibility 2.5 miles
Clouds Few 400 ft
Overcast 2500 ft
Windchill 5 °F
Dew Point 15 °F
Humidity 96%
Rainfall 0.04 in
Snow Depth Not available.
UV 0 out of 12
Pollen 3.10 out of 12
Air Quality Not available.
Flu Activity Not available.
SPECI KLXV 010518Z AUTO 18007KT 2 1/2SM -SN BR FEW004 OVC025 M09/M09 A2984 RMK AO2 P0000 T10891094

More Conditions Fewer Conditions

10-Day Weather Forecast

Almanac

Astronomy

Feb. 28, 2015 Rise Set
Actual Time
Civil Twilight
Nautical Twilight
Astronomical Twilight
Moon
Length of Visible Light
Length of Day
Tomorrow will be .
, % of the Moon is Illuminated

Today's Extremes

State Highs State Lows

Community

WunderPhotos

Upload Photos

1,801,336 photos uploaded!

WunderBlogs® & News

Nearby

Air Quality

  Air Quality AQ Index Pollutant
Not available.

Snow Depth

Station Depth Elevation

Earthquake Activity

City Distance Mag. Time & Date
Minimum magnitude displayed is 2.5.

Coastal Water Temperatures

Place Temperature

Nearby Weather Stations

Winter Storm Warning
Statement as of 7:50 PM MST on February 28, 2015

... Winter Storm Warning remains in effect until 8 PM MST Monday
above 7000 feet...

* locations include the cities of... Aspen... Vail... Ridgway.

* Timing... periods of snow will continue through Monday evening...
though there will also be lulls in the activity. The best
periods for significant snowfall will be tonight and then late
Sunday night through Monday evening.

* Snow accumulation... 1 to 2 feet through Monday with the
highest amounts expected along southwest facing slopes.

* Winds... southwest 15 to 25 mph with higher gusts at times.

* Visibility... restricted at times in snow and blowing snow.

* Impacts... travel is expected to become difficult or impossible
this weekend through Wednesday.

Precautionary/preparedness actions...

A Winter Storm Warning means significant amounts of snow are
expected or occurring. Strong winds and blowing snow are also
possible. This will make travel very hazardous or impossible.